Etusivu
METAR-TAF:

METAR-TAF

Lentoasemat :

Teller, Alaska, Yhdysvallat

Leveyspiiri: 65-14-25N, Pituuspiiri: 166-20-22W, korkeus merenpinnasta: 90 m

Tämänhetkinen sää

Tämä raportti tehtiin 14 minuuttia sitten, kello 23.56 UTC
Tuuli 16 kn pohjoisesta/koillisesta
Lämpötila 5°C
Kosteus 75%
Ilmanpaine 1011 hPa
Näkyvyys: 16.1 km
Pilvistä 2100 ft:n korkeudessa

METAR: PATE 182356Z AUTO 02016KT 10SM OVC021 05/01 A2984 RMK AO2 SLP108 60000 T00500006 10056 20028 53000 TSNO

Aika: 16:10 (00:10 UTC)


TAF: puuttuu

Säähavainnot ja -ennusteet yli 4000 lentoasemalta (METAR- ja TAF-raportit).

Käytössä olevat sääasemat on merkitty karttaan keltaisilla ja punaisilla pisteillä.

Aseta hiiri pisteen päälle nähdäksesi sääaseman nimen.

Klikkaa sitten nähdäksesi säähavainnot ja -ennusteet.

Kartan vaihtaminen: klikkaa mustalla rastilla varustettuja vihreitä pisteitä, niin voit zoomata sisään; viivalla varustettua vihreää pistettä, niin voit zoomata ulos tai vihreitä nuolia, niin pääset viereisille kartoille.


METAR-TAF: